Time;durP1;ratioP1;P1;durP2;ratioP2;P2;SDS_P1;SDS_P2;PMS_P1;PMS_P2;Temp;Humidity;BMP_temperature;BMP_pressure;BME280_temperature;BME280_humidity;BME280_pressure;Samples;Min_cycle;Max_cycle;Signal;HPM_P1;HPM_P2
2022/06/20 00:02:59;;;;;;;1.48;0.60;;;;;;;13.17;100.00;101160.84;6296460;28;20056;-77
2022/06/20 00:06:00;;;;;;;5.25;0.82;;;;;;;13.02;100.00;101117.72;6295854;28;20044;-76
2022/06/20 00:09:01;;;;;;;1.10;0.70;;;;;;;13.04;100.00;101086.84;6297729;28;20059;-76
2022/06/20 00:12:04;;;;;;;4.07;0.70;;;;;;;13.18;100.00;100874.94;6300334;28;20118;-76
2022/06/20 00:15:07;;;;;;;0.93;0.68;;;;;;;13.20;100.00;101020.81;6300659;28;20056;-76
2022/06/20 00:18:11;;;;;;;1.20;0.68;;;;;;;13.14;100.00;101058.97;6301126;28;20519;-76
2022/06/20 00:21:14;;;;;;;2.67;0.80;;;;;;;12.98;100.00;101047.63;6300671;28;20044;-76
2022/06/20 00:24:16;;;;;;;1.75;0.80;;;;;;;13.03;100.00;101049.97;6298860;28;20056;-76
2022/06/20 00:27:17;;;;;;;1.33;0.85;;;;;;;13.03;100.00;101071.09;6300949;28;20048;-74
2022/06/20 00:30:19;;;;;;;4.95;0.73;;;;;;;13.06;100.00;101087.59;6299886;28;20060;-74
2022/06/20 00:33:21;;;;;;;7.25;1.25;;;;;;;12.88;100.00;101057.00;6299107;28;20048;-76
2022/06/20 00:36:23;;;;;;;0.45;0.45;;;;;;;12.89;100.00;101043.72;6300189;28;20053;-76
2022/06/20 00:39:24;;;;;;;1.90;0.55;;;;;;;12.95;100.00;101053.94;6300529;28;20047;-75
2022/06/20 00:42:26;;;;;;;1.88;0.93;;;;;;;12.97;100.00;101034.53;6299857;28;20059;-76
2022/06/20 00:45:33;;;;;;;1.15;0.77;;;;;;;12.88;100.00;101047.31;6300053;28;20048;-76
2022/06/20 00:48:41;;;;;;;1.88;0.68;;;;;;;12.95;100.00;101042.53;6299798;28;20519;-76
2022/06/20 00:51:48;;;;;;;0.60;0.60;;;;;;;12.84;100.00;101031.75;6299567;28;20052;-76
2022/06/20 00:54:55;;;;;;;1.80;0.90;;;;;;;12.67;100.00;101049.41;6297844;28;20052;-76
2022/06/20 00:58:01;;;;;;;1.52;0.80;;;;;;;12.68;100.00;101051.09;6300233;28;20059;-75
2022/06/20 01:01:03;;;;;;;2.35;0.80;;;;;;;12.76;100.00;101052.44;6299348;28;20053;-76
2022/06/20 01:04:11;;;;;;;2.30;0.70;;;;;;;12.77;100.00;101068.19;6299306;28;20408;-76
2022/06/20 01:07:20;;;;;;;1.30;0.68;;;;;;;12.69;100.00;101033.50;6299648;28;20052;-76
2022/06/20 01:10:22;;;;;;;3.05;1.27;;;;;;;12.75;100.00;101040.19;6299177;28;20055;-75
2022/06/20 01:13:25;;;;;;;1.75;0.80;;;;;;;12.73;100.00;101045.56;6299476;28;20044;-76
2022/06/20 01:16:31;;;;;;;1.35;0.73;;;;;;;12.72;100.00;101054.41;6299125;28;20044;-76
2022/06/20 01:19:45;;;;;;;2.03;1.15;;;;;;;12.67;100.00;101046.78;6298872;28;20044;-77
2022/06/20 01:22:58;;;;;;;1.85;0.95;;;;;;;12.72;100.00;101040.34;6297714;28;20055;-76
2022/06/20 01:26:16;;;;;;;0.63;0.63;;;;;;;12.65;100.00;101013.50;6298912;28;20072;-76
2022/06/20 01:29:19;;;;;;;1.52;0.85;;;;;;;12.70;100.00;101011.44;6299160;28;20059;-76
2022/06/20 01:32:20;;;;;;;1.70;1.23;;;;;;;12.77;100.00;101023.34;6298572;28;20057;-76
2022/06/20 01:38:39;;;;;;;2.40;0.85;;;;;;;12.81;100.00;101031.91;6298306;28;20049;-76
2022/06/20 01:45:04;;;;;;;1.60;0.93;;;;;;;12.79;100.00;101017.97;6298879;28;20084;-76
2022/06/20 01:48:09;;;;;;;1.55;0.88;;;;;;;12.75;100.00;101027.00;6273753;28;20052;-76
2022/06/20 01:51:16;;;;;;;7.68;1.42;;;;;;;12.75;100.00;101027.84;6273177;28;20048;-76
2022/06/20 01:54:19;;;;;;;1.85;0.70;;;;;;;12.80;100.00;101031.06;6271896;28;20056;-76
2022/06/20 01:57:22;;;;;;;1.27;0.90;;;;;;;12.82;100.00;101021.28;6273730;28;20049;-76
2022/06/20 02:00:25;;;;;;;1.55;1.10;;;;;;;12.82;100.00;101018.66;6273213;28;20455;-76
2022/06/20 02:03:26;;;;;;;2.28;0.90;;;;;;;12.68;100.00;101018.63;6273546;28;20053;-76
2022/06/20 02:06:29;;;;;;;2.30;1.20;;;;;;;12.59;100.00;101022.63;6273041;28;20049;-76
2022/06/20 02:09:31;;;;;;;1.05;0.80;;;;;;;12.65;100.00;101013.50;6273225;28;20045;-76
2022/06/20 02:12:36;;;;;;;0.65;0.55;;;;;;;12.67;100.00;101015.13;6273020;28;20056;-77
2022/06/20 02:15:40;;;;;;;1.55;0.82;;;;;;;12.70;100.00;101025.47;6273380;28;20057;-77
2022/06/20 02:18:45;;;;;;;1.38;0.73;;;;;;;12.74;100.00;101039.34;6273162;28;20056;-77
2022/06/20 02:21:48;;;;;;;1.80;0.98;;;;;;;12.81;100.00;101038.06;6272904;28;20048;-77
2022/06/20 02:24:52;;;;;;;1.65;0.75;;;;;;;12.78;100.00;101027.69;6270991;28;20051;-77
2022/06/20 02:27:57;;;;;;;4.88;1.25;;;;;;;12.77;100.00;101028.63;6273189;28;20505;-77
2022/06/20 02:31:00;;;;;;;4.13;0.75;;;;;;;12.80;100.00;101024.94;6271827;28;20041;-77
2022/06/20 02:34:03;;;;;;;1.02;0.95;;;;;;;12.79;100.00;101020.63;6272648;28;20060;-77
2022/06/20 02:37:09;;;;;;;3.75;0.90;;;;;;;12.80;100.00;101006.47;6272896;28;20049;-77
2022/06/20 02:40:14;;;;;;;1.75;1.08;;;;;;;12.79;100.00;101015.34;6272447;28;20111;-77
2022/06/20 02:43:20;;;;;;;1.48;0.77;;;;;;;12.79;100.00;101018.81;6273148;28;20057;-77
2022/06/20 02:46:26;;;;;;;5.03;1.00;;;;;;;12.78;100.00;101038.22;6272207;28;20055;-77
2022/06/20 02:49:31;;;;;;;4.05;0.95;;;;;;;12.77;100.00;101055.00;6272191;28;20041;-78
2022/06/20 02:52:37;;;;;;;1.10;0.88;;;;;;;12.70;100.00;101074.75;6266999;28;20049;-78
2022/06/20 02:55:39;;;;;;;4.78;1.48;;;;;;;12.74;100.00;101076.25;6271431;28;20052;-78
2022/06/20 02:58:44;;;;;;;1.90;1.10;;;;;;;12.69;100.00;101096.78;6272396;28;20056;-75
2022/06/20 03:01:52;;;;;;;1.58;0.85;;;;;;;12.64;100.00;101098.81;6260358;28;20049;-77
2022/06/20 03:04:54;;;;;;;1.20;0.77;;;;;;;12.60;100.00;101107.84;6247169;28;20198;-77
2022/06/20 03:07:56;;;;;;;2.10;1.00;;;;;;;12.59;100.00;101114.06;6247283;28;20520;-75
2022/06/20 03:11:02;;;;;;;2.28;0.75;;;;;;;12.48;100.00;101108.50;6246907;28;20057;-75
2022/06/20 03:14:07;;;;;;;2.75;0.80;;;;;;;12.47;100.00;101107.66;6247091;28;20072;-77
2022/06/20 03:17:10;;;;;;;3.38;0.90;;;;;;;12.49;100.00;101120.75;6247546;28;20053;-78
2022/06/20 03:20:14;;;;;;;0.98;0.80;;;;;;;12.49;100.00;101112.84;6246789;28;20409;-75
2022/06/20 03:23:20;;;;;;;5.75;0.90;;;;;;;12.51;100.00;101117.13;6253969;28;20059;-77
2022/06/20 03:26:25;;;;;;;0.80;0.68;;;;;;;12.57;100.00;101114.13;6271983;28;20056;-77
2022/06/20 03:29:26;;;;;;;0.95;0.73;;;;;;;12.53;100.00;101112.59;6272280;28;20049;-77
2022/06/20 03:32:29;;;;;;;3.25;0.90;;;;;;;12.53;100.00;101109.94;6271479;28;20614;-77
2022/06/20 03:35:31;;;;;;;1.63;0.77;;;;;;;12.58;100.00;101115.84;6271631;28;20053;-77
2022/06/20 03:38:35;;;;;;;0.63;0.55;;;;;;;12.65;100.00;101117.19;6271805;28;20052;-77
2022/06/20 03:41:37;;;;;;;2.17;0.60;;;;;;;12.73;100.00;101106.22;6272032;28;20044;-77
2022/06/20 03:44:43;;;;;;;3.42;0.90;;;;;;;12.76;100.00;101121.00;6271203;28;20087;-77
2022/06/20 03:47:52;;;;;;;1.55;0.90;;;;;;;12.74;100.00;101125.53;6272532;28;20701;-77
2022/06/20 03:50:59;;;;;;;1.23;0.80;;;;;;;12.60;100.00;101127.16;6271779;28;20045;-77
2022/06/20 03:54:05;;;;;;;4.97;0.85;;;;;;;12.54;100.00;101124.00;6270295;28;20056;-77
2022/06/20 03:57:13;;;;;;;1.40;0.90;;;;;;;12.50;100.00;101122.47;6272371;28;20055;-75
2022/06/20 04:00:18;;;;;;;4.13;0.80;;;;;;;12.44;100.00;101118.38;6271375;28;20706;-75
2022/06/20 04:03:27;;;;;;;2.20;1.00;;;;;;;12.45;100.00;101122.72;6271300;28;20044;-75
2022/06/20 04:06:34;;;;;;;2.63;1.40;;;;;;;12.40;100.00;101111.59;6270891;28;20049;-75
2022/06/20 04:13:02;;;;;;;2.10;1.08;;;;;;;12.33;100.00;101092.63;6271930;28;20056;-75
2022/06/20 04:16:11;;;;;;;4.30;1.30;;;;;;;12.27;100.00;101076.31;6270775;28;20493;-75
2022/06/20 04:19:19;;;;;;;2.15;1.33;;;;;;;12.15;100.00;101062.84;6271249;28;20402;-76
2022/06/20 04:22:27;;;;;;;3.88;0.90;;;;;;;12.13;100.00;101056.00;6269052;28;20061;-75
2022/06/20 04:25:36;;;;;;;2.38;1.23;;;;;;;12.22;100.00;101033.53;6271004;28;20060;-75
2022/06/20 04:28:44;;;;;;;4.60;0.90;;;;;;;12.23;100.00;101033.47;6271038;28;20056;-75
2022/06/20 04:31:50;;;;;;;3.03;1.00;;;;;;;12.26;100.00;101022.72;6270766;28;20511;-75
2022/06/20 04:34:58;;;;;;;3.38;1.05;;;;;;;12.26;100.00;101019.25;6270577;28;20045;-75
2022/06/20 04:38:05;;;;;;;2.05;0.98;;;;;;;12.28;100.00;101006.84;6272443;28;20515;-76
2022/06/20 04:41:23;;;;;;;5.60;0.77;;;;;;;12.32;100.00;100992.56;6270417;28;20041;-75
2022/06/20 04:44:32;;;;;;;6.40;1.05;;;;;;;12.35;100.00;100968.66;6271101;28;20420;-75
2022/06/20 04:47:39;;;;;;;1.50;0.93;;;;;;;12.39;100.00;100952.56;6270644;28;20053;-76
2022/06/20 04:50:45;;;;;;;2.55;1.10;;;;;;;12.41;100.00;100958.63;6270512;28;20041;-75
2022/06/20 04:53:50;;;;;;;3.78;0.93;;;;;;;12.40;100.00;100945.53;6269818;28;20524;-76
2022/06/20 04:56:55;;;;;;;1.30;0.90;;;;;;;12.41;100.00;100936.69;6275357;28;20059;-76
2022/06/20 05:00:02;;;;;;;2.10;1.23;;;;;;;12.43;100.00;100925.09;6275665;28;20045;-77
2022/06/20 05:03:07;;;;;;;6.30;1.60;;;;;;;12.43;100.00;100919.84;6275401;28;20048;-76
2022/06/20 05:06:17;;;;;;;9.60;1.40;;;;;;;12.42;100.00;100926.06;6274525;28;20049;-76
2022/06/20 05:09:27;;;;;;;2.20;1.30;;;;;;;12.47;100.00;100928.41;6276004;28;20056;-77
2022/06/20 05:12:36;;;;;;;2.28;1.30;;;;;;;12.57;100.00;100911.13;6276640;28;20071;-77
2022/06/20 05:15:41;;;;;;;4.05;1.10;;;;;;;12.68;100.00;100900.81;6275937;28;20060;-78
2022/06/20 05:18:46;;;;;;;4.40;1.30;;;;;;;12.84;100.00;100899.88;6275485;28;20056;-77
2022/06/20 05:21:54;;;;;;;1.65;1.13;;;;;;;12.95;100.00;100902.72;6273631;28;20052;-77
2022/06/20 05:24:58;;;;;;;2.10;1.08;;;;;;;12.95;100.00;100910.63;6274564;28;20052;-76
2022/06/20 05:28:02;;;;;;;2.40;1.20;;;;;;;12.95;100.00;100911.47;6274627;28;20064;-76
2022/06/20 05:31:06;;;;;;;1.58;1.02;;;;;;;13.10;100.00;100912.34;6273832;28;20041;-76
2022/06/20 05:34:16;;;;;;;1.83;1.35;;;;;;;13.11;100.00;100923.72;6274119;28;20048;-76
2022/06/20 05:37:30;;;;;;;4.68;0.80;;;;;;;13.10;100.00;100922.03;6274073;28;20053;-76
2022/06/20 05:40:36;;;;;;;2.72;0.93;;;;;;;13.01;100.00;100920.81;6274932;28;20049;-76
2022/06/20 05:43:38;;;;;;;5.40;0.90;;;;;;;12.98;100.00;100918.34;6274218;28;20064;-76
2022/06/20 05:46:43;;;;;;;5.15;0.75;;;;;;;12.99;100.00;100927.97;6273835;28;20496;-76
2022/06/20 05:49:50;;;;;;;1.65;0.80;;;;;;;12.93;100.00;100929.19;6273559;28;20870;-75
2022/06/20 05:52:55;;;;;;;0.90;0.60;;;;;;;13.03;100.00;100936.53;6272550;28;20485;-76
2022/06/20 05:55:58;;;;;;;5.05;1.08;;;;;;;13.05;100.00;100942.59;6273496;28;20056;-76
2022/06/20 05:59:01;;;;;;;3.90;0.95;;;;;;;13.10;100.00;100948.44;6273867;28;20049;-76
2022/06/20 06:02:14;;;;;;;1.67;0.82;;;;;;;13.22;100.00;100950.38;6273926;28;20056;-78
2022/06/20 06:05:20;;;;;;;3.35;1.10;;;;;;;13.27;100.00;100972.03;6274667;28;20071;-76
2022/06/20 06:08:29;;;;;;;3.58;1.33;;;;;;;13.26;100.00;100982.66;6273526;28;20045;-76
2022/06/20 06:11:34;;;;;;;2.03;1.35;;;;;;;13.28;100.00;100986.09;6274095;28;20055;-78
2022/06/20 06:14:42;;;;;;;1.50;0.88;;;;;;;13.27;100.00;100997.59;6247452;28;20065;-78
2022/06/20 06:17:48;;;;;;;4.05;1.02;;;;;;;13.33;100.00;100997.19;6238771;28;20053;-76
2022/06/20 06:20:50;;;;;;;2.15;0.95;;;;;;;13.34;100.00;100999.75;6247666;28;20046;-78
2022/06/20 06:23:52;;;;;;;2.45;0.95;;;;;;;13.34;100.00;101017.38;6251165;28;20072;-78
2022/06/20 06:26:59;;;;;;;3.78;1.05;;;;;;;13.41;100.00;101016.06;6247231;28;20045;-78
2022/06/20 06:30:04;;;;;;;1.95;0.85;;;;;;;13.47;100.00;101028.03;6247188;28;21388;-78
2022/06/20 06:33:12;;;;;;;3.05;0.80;;;;;;;13.52;100.00;101040.00;6245522;28;20417;-78
2022/06/20 06:36:23;;;;;;;0.83;0.77;;;;;;;13.63;100.00;101056.06;6247146;28;20045;-78
2022/06/20 06:39:30;;;;;;;1.70;0.77;;;;;;;13.75;100.00;101062.38;6245070;28;20064;-79
2022/06/20 06:42:34;;;;;;;0.85;0.80;;;;;;;13.78;100.00;101072.75;6247729;28;20046;-78
2022/06/20 06:45:36;;;;;;;6.57;1.25;;;;;;;13.85;100.00;101081.16;6248542;28;20056;-78
2022/06/20 06:48:42;;;;;;;3.47;0.80;;;;;;;13.90;100.00;101090.50;6248660;28;20102;-79
2022/06/20 06:51:51;;;;;;;2.30;0.68;;;;;;;13.89;100.00;101093.22;6249776;28;20045;-78
2022/06/20 06:54:58;;;;;;;4.43;0.70;;;;;;;13.98;100.00;101102.38;6248291;28;20049;-77
2022/06/20 06:58:07;;;;;;;8.88;0.77;;;;;;;14.10;100.00;101097.19;6249585;28;20068;-78
2022/06/20 07:01:11;;;;;;;3.97;0.98;;;;;;;14.21;100.00;101093.84;6249018;28;20042;-78
2022/06/20 07:04:19;;;;;;;3.42;0.50;;;;;;;14.35;100.00;101099.16;6247720;28;20071;-77
2022/06/20 07:07:26;;;;;;;6.65;0.82;;;;;;;14.40;100.00;101096.22;6248680;28;20063;-78
2022/06/20 07:10:33;;;;;;;2.42;0.65;;;;;;;14.56;100.00;101104.03;6248006;28;20057;-78
2022/06/20 07:13:40;;;;;;;4.63;0.88;;;;;;;14.53;100.00;101099.78;6248548;28;20042;-77
2022/06/20 07:16:46;;;;;;;1.25;0.45;;;;;;;14.58;100.00;101097.72;6248421;28;20045;-78
2022/06/20 07:19:51;;;;;;;1.35;0.50;;;;;;;14.57;100.00;101093.34;6247918;28;20075;-77
2022/06/20 07:22:52;;;;;;;4.68;0.70;;;;;;;14.57;100.00;101087.22;6249360;28;20056;-78
2022/06/20 07:25:56;;;;;;;0.50;0.30;;;;;;;14.63;100.00;101082.38;6247749;28;20571;-79
2022/06/20 07:29:03;;;;;;;3.13;0.47;;;;;;;14.72;100.00;101078.28;6248151;28;20091;-79
2022/06/20 07:32:09;;;;;;;2.75;0.85;;;;;;;14.78;100.00;101066.47;6247093;28;20045;-78
2022/06/20 07:35:14;;;;;;;1.83;0.68;;;;;;;14.86;100.00;101061.50;6247762;28;20064;-78
2022/06/20 07:38:19;;;;;;;1.85;0.80;;;;;;;14.83;100.00;101059.91;6248099;28;20505;-78
2022/06/20 07:41:27;;;;;;;3.38;1.55;;;;;;;14.76;100.00;101045.41;6247687;28;20053;-78
2022/06/20 07:44:32;;;;;;;1.75;0.90;;;;;;;14.72;100.00;101030.69;6247620;28;20421;-78
2022/06/20 07:47:38;;;;;;;4.47;1.23;;;;;;;14.81;100.00;101035.34;6247638;28;20060;-78
2022/06/20 07:50:43;;;;;;;1.58;0.80;;;;;;;15.04;98.47;101048.84;6246582;28;20076;-79
2022/06/20 07:53:51;;;;;;;3.50;1.35;;;;;;;15.08;99.51;101030.00;6246982;28;20042;-78
2022/06/20 07:56:58;;;;;;;2.58;0.85;;;;;;;15.14;96.00;101034.88;6247272;28;20042;-77
2022/06/20 08:00:06;;;;;;;3.55;0.75;;;;;;;15.16;96.25;101053.31;6246621;28;20052;-78
2022/06/20 08:03:12;;;;;;;4.68;0.60;;;;;;;15.27;96.80;101045.50;6247591;28;20140;-77
2022/06/20 08:06:24;;;;;;;2.42;0.65;;;;;;;15.37;96.08;101051.84;6262515;28;20045;-78
2022/06/20 08:09:32;;;;;;;1.75;0.70;;;;;;;15.33;95.58;101041.56;6272637;28;20056;-78
2022/06/20 08:12:42;;;;;;;2.50;0.90;;;;;;;15.19;96.10;101040.72;6248887;28;20052;-75
2022/06/20 08:15:50;;;;;;;2.65;1.08;;;;;;;15.19;96.96;101037.22;6239981;28;20053;-77
2022/06/20 08:18:51;;;;;;;1.85;1.10;;;;;;;15.29;99.33;101040.94;6227970;28;20056;-77
2022/06/20 08:21:58;;;;;;;2.75;0.85;;;;;;;15.33;93.16;101041.56;6233848;28;20046;-78
2022/06/20 08:25:07;;;;;;;1.20;0.68;;;;;;;15.36;96.25;101052.81;6246561;28;20049;-76
2022/06/20 08:28:18;;;;;;;1.17;0.70;;;;;;;15.51;92.32;101056.19;6246571;28;20065;-76
2022/06/20 08:31:25;;;;;;;1.70;0.90;;;;;;;15.51;87.61;101066.78;6251231;28;20046;-78
2022/06/20 08:34:34;;;;;;;3.03;0.60;;;;;;;15.55;83.04;101062.13;6251969;28;20045;-78
2022/06/20 08:37:41;;;;;;;3.28;0.70;;;;;;;15.70;86.10;101064.59;6252369;28;20054;-78
2022/06/20 08:41:05;;;;;;;1.23;1.13;;;;;;;15.75;87.05;101060.78;6251705;28;20056;-77
2022/06/20 08:44:26;;;;;;;3.30;0.88;;;;;;;15.68;80.70;101078.91;6253064;28;20057;-78
2022/06/20 08:47:54;;;;;;;0.82;0.77;;;;;;;15.51;84.19;101080.03;6252559;28;20052;-78
2022/06/20 08:51:18;;;;;;;2.20;0.75;;;;;;;15.45;83.13;101085.78;6253787;28;20052;-78
2022/06/20 08:54:39;;;;;;;1.40;0.70;;;;;;;15.69;85.00;101067.34;6251853;28;20085;-76
2022/06/20 08:57:52;;;;;;;1.70;0.60;;;;;;;15.98;82.02;101067.94;6250669;28;20485;-77
2022/06/20 09:01:04;;;;;;;3.10;0.93;;;;;;;16.16;78.37;101071.94;6250567;28;20128;-77
2022/06/20 09:04:35;;;;;;;1.70;0.90;;;;;;;16.14;77.72;101073.88;6251210;28;20486;-78
2022/06/20 09:07:55;;;;;;;1.33;1.15;;;;;;;16.09;77.10;101064.56;6252115;28;20428;-78
2022/06/20 09:11:11;;;;;;;1.77;0.90;;;;;;;16.21;79.44;101066.31;6251230;28;20057;-77
2022/06/20 09:14:39;;;;;;;2.42;0.73;;;;;;;16.29;76.40;101066.59;6252483;28;20050;-77
2022/06/20 09:17:55;;;;;;;1.10;0.53;;;;;;;16.34;75.49;101071.56;6252430;28;20049;-78
2022/06/20 09:21:02;;;;;;;5.57;1.95;;;;;;;16.34;77.67;101068.94;6255564;28;20322;-77
2022/06/20 09:24:17;;;;;;;6.80;0.77;;;;;;;16.36;79.94;101067.03;6274864;28;20045;-76
2022/06/20 09:27:29;;;;;;;3.50;0.85;;;;;;;16.44;75.30;101062.88;6274940;28;20401;-76
2022/06/20 09:30:36;;;;;;;5.65;0.70;;;;;;;16.44;75.07;101065.50;6274658;28;20049;-76
2022/06/20 09:33:58;;;;;;;0.60;0.60;;;;;;;16.40;73.52;101060.53;6274834;28;20045;-75
2022/06/20 09:37:24;;;;;;;2.33;0.43;;;;;;;16.32;68.86;101063.75;6277494;28;20076;-78
2022/06/20 09:40:38;;;;;;;1.15;0.50;;;;;;;16.26;72.11;101058.91;6277534;28;20072;-77
2022/06/20 09:43:47;;;;;;;2.40;0.73;;;;;;;16.38;73.17;101070.41;6274567;28;20041;-75
2022/06/20 09:46:57;;;;;;;;;;;;;;;16.49;71.75;101067.84;6274632;28;20484;-76
2022/06/20 09:50:08;;;;;;;;;;;;;;;16.54;71.88;101064.84;6275876;28;19921;-76
2022/06/20 09:53:23;;;;;;;1.38;0.80;;;;;;;16.65;69.32;101054.28;6250927;28;19921;-75
2022/06/20 09:56:33;;;;;;;4.30;0.70;;;;;;;16.83;71.18;101060.06;6249011;28;20054;-77
2022/06/20 09:59:42;;;;;;;2.42;0.63;;;;;;;16.90;68.13;101056.84;6249925;28;20061;-77
2022/06/20 10:02:50;;;;;;;;;;;;;;;16.99;66.75;101058.81;6250795;28;20056;-78
2022/06/20 10:05:58;;;;;;;2.65;0.80;;;;;;;17.06;67.74;101045.06;6249590;28;19928;-78
2022/06/20 10:09:08;;;;;;;0.65;0.57;;;;;;;17.13;68.05;101044.47;6250692;28;20563;-78
2022/06/20 10:12:20;;;;;;;2.35;0.65;;;;;;;17.16;67.73;101049.53;6249671;28;20408;-76
2022/06/20 10:15:31;;;;;;;1.00;0.68;;;;;;;17.39;65.12;101062.88;6249695;28;20532;-77
2022/06/20 10:18:42;;;;;;;1.75;0.88;;;;;;;17.34;66.96;101049.94;6250208;28;20060;-76
2022/06/20 10:21:52;;;;;;;0.80;0.70;;;;;;;17.42;65.38;101060.81;6250793;28;20046;-77
2022/06/20 10:25:18;;;;;;;1.88;1.08;;;;;;;17.44;65.26;101058.03;6249218;28;20053;-77
2022/06/20 10:28:28;;;;;;;1.42;0.75;;;;;;;17.60;66.66;101052.41;6249847;28;20425;-78
2022/06/20 10:31:42;;;;;;;2.78;0.90;;;;;;;17.62;64.49;101054.00;6251526;28;20045;-77
2022/06/20 10:34:53;;;;;;;0.98;0.88;;;;;;;17.52;67.57;101066.28;6250372;28;20397;-78
2022/06/20 10:38:04;;;;;;;1.35;0.75;;;;;;;17.41;66.83;101061.81;6250311;28;20651;-77
2022/06/20 10:41:08;;;;;;;2.63;0.80;;;;;;;17.38;65.72;101061.19;6248824;28;20075;-74
2022/06/20 10:44:20;;;;;;;2.08;1.13;;;;;;;17.34;66.18;101079.16;6251443;28;20045;-77
2022/06/20 10:47:31;;;;;;;1.10;0.80;;;;;;;17.60;64.84;101074.50;6249958;28;20042;-76
2022/06/20 10:50:37;;;;;;;3.78;2.05;;;;;;;17.95;65.99;101073.59;6253639;28;20046;-78
2022/06/20 10:53:48;;;;;;;1.77;1.17;;;;;;;18.31;63.74;101075.13;6250661;28;20045;-79
2022/06/20 10:57:00;;;;;;;3.67;0.90;;;;;;;18.49;61.32;101080.78;6251689;28;20049;-78
2022/06/20 11:00:10;;;;;;;3.05;1.23;;;;;;;17.99;61.87;101077.72;6253322;28;20064;-78
2022/06/20 11:03:39;;;;;;;3.42;0.60;;;;;;;18.00;64.05;101077.59;6251097;28;20053;-77
2022/06/20 11:06:57;;;;;;;5.13;1.70;;;;;;;18.19;63.32;101074.28;6252159;28;20055;-77
2022/06/20 11:10:10;;;;;;;2.65;1.10;;;;;;;18.15;63.05;101085.31;6251682;28;20057;-78
2022/06/20 11:13:21;;;;;;;2.88;1.05;;;;;;;17.86;62.88;101084.97;6253181;28;20046;-78
2022/06/20 11:16:33;;;;;;;2.00;1.13;;;;;;;17.66;64.48;101086.47;6252150;28;20056;-78
2022/06/20 11:19:44;;;;;;;1.10;1.00;;;;;;;17.70;65.77;101083.44;6254078;28;20076;-78
2022/06/20 11:22:50;;;;;;;1.45;0.90;;;;;;;17.77;66.27;101077.72;6278741;28;20409;-77
2022/06/20 11:26:03;;;;;;;1.75;1.00;;;;;;;17.62;67.38;101077.03;6279529;28;20060;-78
2022/06/20 11:29:23;;;;;;;2.45;1.05;;;;;;;17.54;69.23;101080.31;6277187;28;20459;-78
2022/06/20 11:32:32;;;;;;;3.30;1.48;;;;;;;17.48;66.77;101088.72;6278392;28;20076;-78
2022/06/20 11:35:43;;;;;;;2.70;0.93;;;;;;;17.44;67.86;101081.97;6276203;28;20049;-76
2022/06/20 11:39:08;;;;;;;1.17;0.90;;;;;;;18.12;65.04;101082.88;6275973;28;20122;-78
2022/06/20 11:42:24;;;;;;;3.42;1.38;;;;;;;18.66;62.87;101082.06;6276446;28;20085;-78
2022/06/20 11:45:39;;;;;;;3.05;1.15;;;;;;;19.22;60.65;101068.53;6249055;28;20049;-78
2022/06/20 11:48:53;;;;;;;2.95;1.40;;;;;;;19.38;59.23;101068.91;6252442;28;20041;-79
2022/06/20 11:52:04;;;;;;;4.03;1.17;;;;;;;19.67;55.56;101057.63;6270380;28;20052;-79
2022/06/20 11:55:12;;;;;;;3.15;1.00;;;;;;;19.80;56.52;101065.38;6278840;28;20049;-78
2022/06/20 11:58:22;;;;;;;3.17;1.13;;;;;;;19.28;58.58;101068.00;6281685;28;20049;-78
2022/06/20 12:01:27;;;;;;;2.15;1.15;;;;;;;19.14;58.92;101058.53;6277846;28;20071;-77
2022/06/20 12:04:36;;;;;;;3.00;1.13;;;;;;;19.07;58.00;101061.81;6278189;28;20484;-78
2022/06/20 12:07:45;;;;;;;2.40;0.80;;;;;;;18.74;57.68;101059.19;6280601;28;20520;-78
2022/06/20 12:10:52;;;;;;;3.50;0.80;;;;;;;18.65;57.87;101070.56;6280670;28;20049;-78
2022/06/20 12:14:04;;;;;;;3.83;0.90;;;;;;;18.44;58.56;101073.19;6280807;28;20075;-78
2022/06/20 12:17:21;;;;;;;1.05;0.90;;;;;;;18.25;59.90;101070.28;6281702;28;20060;-78
2022/06/20 12:23:56;;;;;;;2.53;0.70;;;;;;;17.99;59.65;101091.00;6258401;28;20073;-78
2022/06/20 12:26:58;;;;;;;1.50;0.85;;;;;;;17.93;61.33;101088.81;6257676;28;20049;-78
2022/06/20 12:30:00;;;;;;;1.73;1.02;;;;;;;17.92;60.87;101082.66;6257689;28;20524;-78
2022/06/20 12:33:04;;;;;;;2.13;1.05;;;;;;;17.87;62.95;101076.00;6258694;28;20041;-78
2022/06/20 12:36:14;;;;;;;1.17;0.80;;;;;;;17.97;61.70;101069.00;6257485;28;20076;-79
2022/06/20 12:39:20;;;;;;;1.80;0.93;;;;;;;18.67;62.33;101073.97;6257499;28;20049;-76
2022/06/20 12:42:45;;;;;;;1.23;0.90;;;;;;;18.78;56.30;101069.59;6252931;28;20049;-77
2022/06/20 12:46:11;;;;;;;1.08;0.60;;;;;;;18.52;57.68;101068.06;6230808;28;20056;-78
2022/06/20 12:49:40;;;;;;;3.17;1.35;;;;;;;18.51;58.92;101076.16;6229972;28;20050;-77
2022/06/20 12:52:53;;;;;;;0.93;0.57;;;;;;;18.48;58.49;101084.41;6251821;28;20045;-78
2022/06/20 12:56:07;;;;;;;1.48;0.98;;;;;;;18.27;58.08;101083.50;6252215;28;20054;-75
2022/06/20 12:59:39;;;;;;;1.42;0.75;;;;;;;18.24;59.93;101079.25;6250740;28;20046;-76
2022/06/20 13:03:05;;;;;;;4.53;1.00;;;;;;;18.42;57.74;101074.25;6251760;28;20053;-77
2022/06/20 13:06:33;;;;;;;3.60;1.23;;;;;;;18.46;56.52;101089.84;6250768;28;20528;-77
2022/06/20 13:09:53;;;;;;;0.43;0.43;;;;;;;18.65;55.99;101075.03;6245312;28;20053;-76
2022/06/20 13:13:13;;;;;;;1.38;0.50;;;;;;;18.73;54.58;101077.97;6254692;28;20048;-77
2022/06/20 13:16:20;;;;;;;;;;;;;;;19.18;53.70;101080.44;6251242;28;20053;-77
2022/06/20 13:19:44;;;;;;;4.25;0.90;;;;;;;19.18;53.76;101081.28;6252581;28;19928;-76
2022/06/20 13:22:56;;;;;;;0.60;0.38;;;;;;;18.80;50.27;101083.59;6275135;28;20067;-75
2022/06/20 13:26:02;;;;;;;1.52;0.93;;;;;;;18.64;52.24;101082.19;6274211;28;20052;-76
2022/06/20 13:29:23;;;;;;;2.33;0.73;;;;;;;18.56;52.93;101073.13;6275343;28;20060;-77
2022/06/20 13:32:30;;;;;;;0.35;0.35;;;;;;;18.50;52.61;101093.97;6275294;28;20401;-76
2022/06/20 13:35:44;;;;;;;0.82;0.50;;;;;;;18.46;53.02;101092.50;6274630;28;20519;-76
2022/06/20 13:38:51;;;;;;;3.67;0.73;;;;;;;18.56;53.83;101102.41;6274551;28;20095;-76
2022/06/20 13:41:57;;;;;;;1.13;0.70;;;;;;;18.47;55.99;101098.69;6274413;28;20049;-77
2022/06/20 13:45:06;;;;;;;3.17;0.70;;;;;;;18.49;56.39;101104.75;6274546;28;20056;-77
2022/06/20 13:48:15;;;;;;;0.57;0.57;;;;;;;18.42;53.03;101101.72;6274572;28;20561;-77
2022/06/20 13:51:23;;;;;;;1.15;0.63;;;;;;;18.25;53.92;101097.75;6272195;28;20057;-76
2022/06/20 13:54:31;;;;;;;1.88;0.60;;;;;;;18.33;54.14;101112.25;6258288;28;20048;-77
2022/06/20 13:57:38;;;;;;;1.00;0.50;;;;;;;18.66;52.36;101108.69;6247866;28;20045;-76
2022/06/20 14:00:41;;;;;;;1.48;0.60;;;;;;;18.97;51.73;101113.19;6245131;28;20053;-76
2022/06/20 14:03:47;;;;;;;1.85;0.88;;;;;;;18.70;48.94;101118.13;6247913;28;20520;-77
2022/06/20 14:06:54;;;;;;;0.60;0.38;;;;;;;18.52;51.03;101120.44;6248506;28;20041;-77
2022/06/20 14:09:56;;;;;;;2.83;0.50;;;;;;;18.32;52.43;101108.75;6247373;28;20048;-75
2022/06/20 14:13:01;;;;;;;0.45;0.40;;;;;;;18.63;51.52;101109.78;6244598;28;20042;-74
2022/06/20 14:16:24;;;;;;;0.57;0.52;;;;;;;18.51;51.22;101127.59;6247131;28;20508;-76
2022/06/20 14:19:30;;;;;;;0.68;0.50;;;;;;;18.44;51.40;101115.75;6246106;28;20416;-76
2022/06/20 14:22:38;;;;;;;2.08;0.85;;;;;;;19.10;52.06;101118.38;6246839;28;20045;-76
2022/06/20 14:25:42;;;;;;;4.10;0.55;;;;;;;19.68;47.11;101108.13;6248332;28;20508;-76
2022/06/20 14:28:47;;;;;;;0.88;0.50;;;;;;;19.53;47.20;101104.09;6249650;28;20063;-77
2022/06/20 14:31:55;;;;;;;0.57;0.50;;;;;;;19.46;46.87;101119.75;6252863;28;20415;-77
2022/06/20 14:38:29;;;;;;;0.82;0.60;;;;;;;19.75;46.73;101119.09;6248744;28;20468;-74
2022/06/20 14:41:42;;;;;;;;;;;;;;;19.55;45.44;101118.13;6249994;28;20053;-76
2022/06/20 14:44:55;;;;;;;0.63;0.47;;;;;;;19.09;45.53;101123.84;6250160;28;19921;-75
2022/06/20 14:48:01;;;;;;;0.85;0.60;;;;;;;18.75;47.97;101127.44;6250171;28;20099;-77
2022/06/20 14:51:11;;;;;;;0.40;0.40;;;;;;;18.50;47.69;101122.41;6267816;28;20048;-76